Airfield :
LOGIN :

Register | Disclaimer

   EN    FR    IT 

 










Legend :    VFR   Marginal VFR   IFR   Intensive IFR   Very Intensive IFR
Visi :
Ceiling :
>= 8 km
>= 3000ft
5 to 8 km
1000 to 3000 ft
1500m to 5 km
500 to 1000 ft
800 to 1500m
200 to 500 ft
< 800m
< 200 ft
Symbols :   Thunderstorms  Fog  Heavy snow  Heavy precipitations  Wind > 20 kt
SIGMETs :     Misc.  Thunderstorms  Icing  Turbulence  Mountain Waves  Volcanic Ashes






- Airport Elevation : 1302 ft
- IATA code : GNB


LFLS - Grenoble / St. Geoirs

CURRENT METAR :
  • 120500Z AUTO 08005KT 8000 FEW036 BKN043 OVC050 00/M00 Q1011 TEMPO 3000 BR

EXPIRED METARs :
  • 120430Z AUTO 09007KT 6000 FEW002 SCT041 BKN047 M01/M01 Q1011 TEMPO 3000 BR
  • 120400Z AUTO 07006KT 9999 4800 SCT045 SCT054 M00/M00 Q1011 TEMPO 3000 BR
  • 120330Z AUTO 08004KT 9000 FEW022 M01/M01 Q1011 TEMPO 3000 BR
  • 120300Z AUTO 08006KT 040V110 6000 FEW023 01/00 Q1011 TEMPO 3000 BR
  • 120230Z AUTO VRB02KT 5000 BR FEW037 BKN046 01/01 Q1011 NOSIG

TAF TAF LFLS
Valid from the 12 at 03:00 until the 13 at 03:00 UTC


120200Z 1203/1303 VRB03KT 9999 BKN030
PROB40
TEMPO 1203/1207 3000 BR
BECMG 1211/1213 CAVOK
BECMG 1218/1220 18008KT
TEMPO 1220/1303 18020G35KT 4000 RA BKN020
ATIS : +33 4 76 65 55 89



MET'MAP, your aeronautical weather chart ! - Copyright ORBIFLY December 2007 - Disclaimer

ORBIFLY MET'MAP TEAM :

Programming & Development : Alexandra Zaïnal
Concept & original design : Baudouin d'Aumeries
Assistance for programming : Marc-Olivier Méhu
Technical & hardware support : Manuel Goepfert

Contact : metmap@orbifly.com




SOURCES & CREDITS :

   NOAA